Time;durP1;ratioP1;P1;durP2;ratioP2;P2;SDS_P1;SDS_P2;PMS_P1;PMS_P2;Temp;Humidity;BMP_temperature;BMP_pressure;BME280_temperature;BME280_humidity;BME280_pressure;Samples;Min_cycle;Max_cycle;Signal;HPM_P1;HPM_P2
2021/04/16 00:01:49;;;;;;;6.03;3.20;;;1.90;99.90;;;;;;4992896;28;20037;-81
2021/04/16 00:04:15;;;;;;;5.95;3.00;;;1.80;99.90;;;;;;4992340;28;20101;-80
2021/04/16 00:06:40;;;;;;;7.43;3.30;;;1.80;99.90;;;;;;4992993;28;20054;-80
2021/04/16 00:09:06;;;;;;;5.65;3.10;;;1.70;99.90;;;;;;4992836;28;20032;-80
2021/04/16 00:11:32;;;;;;;8.82;3.10;;;1.70;99.90;;;;;;4990302;28;20054;-80
2021/04/16 00:13:58;;;;;;;5.15;2.42;;;1.80;99.90;;;;;;5006671;28;20081;-81
2021/04/16 00:16:27;;;;;;;4.97;2.90;;;1.80;99.90;;;;;;4992889;28;20022;-81
2021/04/16 00:18:53;;;;;;;5.15;2.95;;;1.80;99.90;;;;;;4992614;28;20117;-80
2021/04/16 00:21:18;;;;;;;11.18;2.80;;;1.80;99.90;;;;;;4992463;28;20102;-81
2021/04/16 00:23:44;;;;;;;6.40;3.00;;;1.80;99.90;;;;;;4991676;28;20049;-81
2021/04/16 00:26:12;;;;;;;6.07;2.83;;;1.80;99.90;;;;;;4981534;28;20750;-81
2021/04/16 00:28:38;;;;;;;8.20;3.17;;;1.80;99.90;;;;;;4973276;28;20018;-81
2021/04/16 00:31:12;;;;;;;9.18;2.75;;;1.90;99.90;;;;;;4976325;28;20026;-81
2021/04/16 00:33:37;;;;;;;5.00;2.50;;;1.80;99.90;;;;;;5007405;28;20566;-81
2021/04/16 00:36:03;;;;;;;5.68;2.85;;;1.80;99.90;;;;;;4990704;28;20125;-81
2021/04/16 00:38:29;;;;;;;5.68;2.80;;;1.60;99.90;;;;;;4991341;28;20027;-80
2021/04/16 00:40:58;;;;;;;5.72;2.60;;;1.30;99.90;;;;;;4987526;28;20035;-81
2021/04/16 00:43:27;;;;;;;4.25;2.60;;;1.20;99.90;;;;;;4972737;28;20041;-81
2021/04/16 00:46:04;;;;;;;6.18;3.03;;;1.00;99.90;;;;;;4972344;28;20153;-81
2021/04/16 00:48:36;;;;;;;9.60;2.88;;;0.90;99.90;;;;;;4971703;28;20399;-80
2021/04/16 00:51:05;;;;;;;8.25;2.75;;;1.00;99.90;;;;;;4978995;28;20034;-81
2021/04/16 00:53:34;;;;;;;5.38;3.15;;;1.20;99.90;;;;;;4992274;28;20041;-81
2021/04/16 00:56:00;;;;;;;5.90;3.40;;;1.30;99.90;;;;;;4986949;28;20041;-81
2021/04/16 00:58:28;;;;;;;7.65;2.50;;;1.10;99.90;;;;;;4972017;28;20026;-80
2021/04/16 01:00:57;;;;;;;4.68;2.70;;;1.00;99.90;;;;;;4976225;28;20106;-81
2021/04/16 01:03:24;;;;;;;7.18;3.55;;;0.80;99.90;;;;;;4992028;28;20019;-80
2021/04/16 01:05:55;;;;;;;8.13;3.30;;;0.70;99.90;;;;;;4991401;28;20682;-80
2021/04/16 01:08:21;;;;;;;5.90;2.67;;;0.60;99.90;;;;;;4992223;28;20073;-81
2021/04/16 01:10:50;;;;;;;9.45;3.25;;;0.60;99.90;;;;;;4984175;28;20427;-81
2021/04/16 01:13:15;;;;;;;5.20;3.10;;;0.50;99.90;;;;;;4983804;28;20030;-80
2021/04/16 01:15:41;;;;;;;7.18;3.38;;;0.40;99.90;;;;;;4991391;28;20036;-80
2021/04/16 01:18:14;;;;;;;7.70;3.85;;;0.30;99.90;;;;;;4991935;28;20109;-81
2021/04/16 01:20:41;;;;;;;;;;;0.30;99.90;;;;;;4991991;28;20038;-81
2021/04/16 01:23:14;;;;;;;3.88;3.03;;;0.10;99.90;;;;;;4990666;28;19906;-80
2021/04/16 01:25:42;;;;;;;8.32;3.60;;;0.10;99.90;;;;;;4983098;28;20031;-81
2021/04/16 01:28:08;;;;;;;5.05;3.35;;;0.00;99.90;;;;;;4972367;28;20019;-81
2021/04/16 01:30:33;;;;;;;7.43;3.30;;;0.00;99.90;;;;;;4974536;28;20422;-81
2021/04/16 01:33:01;;;;;;;14.98;4.32;;;-0.10;99.90;;;;;;4990600;28;20030;-81
2021/04/16 01:35:35;;;;;;;8.27;4.30;;;-0.10;99.90;;;;;;4991302;28;20030;-81
2021/04/16 01:38:05;;;;;;;7.25;3.17;;;-0.10;99.90;;;;;;4995798;28;20033;-80
2021/04/16 01:40:31;;;;;;;6.38;3.67;;;0.00;99.90;;;;;;4995394;28;20487;-80
2021/04/16 01:42:56;;;;;;;13.15;3.53;;;0.10;99.90;;;;;;4993867;28;20042;-81
2021/04/16 01:45:26;;;;;;;9.32;3.33;;;0.10;99.90;;;;;;4994990;28;20118;-80
2021/04/16 01:47:56;;;;;;;5.57;3.45;;;0.20;99.90;;;;;;4995695;28;20431;-81
2021/04/16 01:50:22;;;;;;;7.35;3.22;;;0.20;99.90;;;;;;4993578;28;20022;-81
2021/04/16 01:52:48;;;;;;;6.75;3.25;;;0.30;99.90;;;;;;4974837;28;20105;-81
2021/04/16 01:55:14;;;;;;;9.90;3.60;;;0.40;99.90;;;;;;4976947;28;20058;-81
2021/04/16 01:57:39;;;;;;;6.82;3.47;;;0.50;99.90;;;;;;4995142;28;20084;-81
2021/04/16 02:00:27;;;;;;;8.88;3.65;;;0.60;99.90;;;;;;4995572;28;20033;-80
2021/04/16 02:02:53;;;;;;;7.95;3.25;;;0.70;99.90;;;;;;4975804;28;20577;-80
2021/04/16 02:05:18;;;;;;;5.95;3.22;;;0.70;99.90;;;;;;4975002;28;20039;-81
2021/04/16 02:07:44;;;;;;;10.52;3.67;;;0.70;99.90;;;;;;4974406;28;20023;-81
2021/04/16 02:10:10;;;;;;;7.57;3.33;;;0.60;99.90;;;;;;4976777;28;20089;-80
2021/04/16 02:12:36;;;;;;;15.52;4.15;;;0.60;99.90;;;;;;4994834;28;20029;-80
2021/04/16 02:15:02;;;;;;;5.85;4.15;;;0.70;99.90;;;;;;4993700;28;20170;-80
2021/04/16 02:17:29;;;;;;;11.00;4.57;;;0.60;99.90;;;;;;4994974;28;20117;-81
2021/04/16 02:19:57;;;;;;;5.07;3.35;;;0.50;99.90;;;;;;5010177;28;20421;-81
2021/04/16 02:22:24;;;;;;;7.90;3.90;;;0.40;99.90;;;;;;4994243;28;20395;-81
2021/04/16 02:24:51;;;;;;;6.45;3.50;;;0.10;99.90;;;;;;4992656;28;20022;-80
2021/04/16 02:27:21;;;;;;;10.65;3.95;;;0.00;99.90;;;;;;4987459;28;20030;-80
2021/04/16 02:29:47;;;;;;;7.35;3.65;;;-0.10;99.90;;;;;;4975103;28;20026;-81
2021/04/16 02:32:13;;;;;;;8.10;3.72;;;-0.20;99.90;;;;;;4975512;28;20030;-80
2021/04/16 02:34:39;;;;;;;7.15;3.50;;;-0.20;99.90;;;;;;4972770;28;20047;-81
2021/04/16 02:37:09;;;;;;;10.05;4.68;;;-0.20;99.90;;;;;;4972368;28;20037;-80
2021/04/16 02:39:35;;;;;;;9.27;4.55;;;-0.10;99.90;;;;;;4975249;28;20033;-81
2021/04/16 02:42:01;;;;;;;10.48;3.47;;;0.00;99.90;;;;;;4988193;28;20038;-80
2021/04/16 02:44:27;;;;;;;8.55;4.13;;;0.00;99.90;;;;;;4974158;28;20023;-80
2021/04/16 02:46:56;;;;;;;8.90;4.07;;;0.00;99.90;;;;;;4975132;28;20158;-81
2021/04/16 02:49:23;;;;;;;13.10;4.20;;;0.20;99.90;;;;;;4973741;28;20049;-81
2021/04/16 02:51:49;;;;;;;9.40;4.10;;;0.30;99.90;;;;;;4986637;28;20543;-80
2021/04/16 02:54:15;;;;;;;11.50;4.15;;;0.30;99.90;;;;;;4992397;28;20026;-81
2021/04/16 02:56:41;;;;;;;7.80;4.20;;;0.40;99.90;;;;;;4993009;28;20109;-81
2021/04/16 02:59:08;;;;;;;9.55;3.95;;;0.50;99.90;;;;;;5009308;28;20160;-81
2021/04/16 03:01:34;;;;;;;9.43;4.32;;;0.50;99.90;;;;;;4993942;28;20384;-80
2021/04/16 03:04:00;;;;;;;10.00;4.38;;;0.40;99.90;;;;;;4993466;28;20026;-80
2021/04/16 03:06:25;;;;;;;13.35;4.93;;;0.50;99.90;;;;;;4994123;28;20030;-80
2021/04/16 03:08:56;;;;;;;11.85;4.43;;;0.40;99.90;;;;;;5009297;28;20027;-80
2021/04/16 03:11:23;;;;;;;15.18;4.75;;;0.40;99.90;;;;;;4989383;28;20054;-80
2021/04/16 03:13:49;;;;;;;11.57;4.70;;;0.40;99.90;;;;;;4988984;28;20482;-81
2021/04/16 03:16:16;;;;;;;16.63;4.68;;;0.40;99.90;;;;;;4993980;28;20029;-80
2021/04/16 03:18:41;;;;;;;13.73;5.78;;;0.40;99.90;;;;;;4993875;28;20018;-80
2021/04/16 03:21:07;;;;;;;11.02;4.68;;;0.40;99.90;;;;;;4993331;28;20616;-81
2021/04/16 03:23:33;;;;;;;10.82;5.25;;;0.40;99.90;;;;;;4989383;28;20651;-80
2021/04/16 03:25:58;;;;;;;13.35;4.45;;;0.40;99.90;;;;;;4982618;28;20058;-80
2021/04/16 03:28:24;;;;;;;15.52;4.88;;;0.20;99.90;;;;;;4992482;28;20064;-80
2021/04/16 03:30:51;;;;;;;10.75;4.57;;;0.20;99.90;;;;;;5008187;28;20022;-80
2021/04/16 03:33:17;;;;;;;7.07;4.28;;;0.20;99.90;;;;;;4993599;28;20498;-80
2021/04/16 03:35:43;;;;;;;9.73;4.55;;;0.20;99.90;;;;;;5008051;28;20061;-80
2021/04/16 03:38:09;;;;;;;10.18;4.22;;;0.20;99.90;;;;;;4993541;28;20031;-80
2021/04/16 03:40:35;;;;;;;10.75;4.82;;;0.10;99.90;;;;;;4993205;28;20132;-80
2021/04/16 03:43:00;;;;;;;11.43;4.47;;;0.10;99.90;;;;;;4993385;28;20070;-80
2021/04/16 03:45:27;;;;;;;12.50;5.05;;;0.10;99.90;;;;;;4992760;28;20467;-80
2021/04/16 03:47:53;;;;;;;9.23;5.07;;;0.00;99.90;;;;;;4993295;28;20023;-80
2021/04/16 03:50:23;;;;;;;12.70;4.18;;;0.00;99.90;;;;;;4990835;28;20029;-80
2021/04/16 03:52:49;;;;;;;7.85;4.93;;;-0.10;99.90;;;;;;4972975;28;20019;-80
2021/04/16 03:55:16;;;;;;;9.50;4.63;;;-0.10;99.90;;;;;;4974759;28;20030;-80
2021/04/16 03:57:42;;;;;;;12.25;4.30;;;-0.30;99.90;;;;;;4993203;28;20043;-80
2021/04/16 04:00:11;;;;;;;13.82;4.75;;;-0.30;99.90;;;;;;5007706;28;20030;-80
2021/04/16 04:02:37;;;;;;;13.48;4.82;;;-0.40;99.90;;;;;;4992658;28;20054;-80
2021/04/16 04:05:04;;;;;;;8.85;4.72;;;-0.40;99.90;;;;;;4992373;28;20057;-80
2021/04/16 04:07:30;;;;;;;10.15;4.28;;;-0.40;99.90;;;;;;4991726;28;20022;-80
2021/04/16 04:09:55;;;;;;;6.32;3.97;;;-0.30;99.90;;;;;;4992192;28;20026;-80
2021/04/16 04:12:21;;;;;;;10.63;5.20;;;-0.20;99.90;;;;;;4973310;28;20114;-80
2021/04/16 04:14:46;;;;;;;13.02;5.32;;;-0.30;99.90;;;;;;4972887;28;20472;-80
2021/04/16 04:17:26;;;;;;;8.82;4.68;;;-0.40;99.90;;;;;;4972216;28;20027;-80
2021/04/16 04:19:52;;;;;;;16.95;7.28;;;-0.50;99.90;;;;;;4973413;28;20180;-80
2021/04/16 04:22:18;;;;;;;11.93;4.85;;;-0.60;99.90;;;;;;4990316;28;20030;-80
2021/04/16 04:24:44;;;;;;;15.88;4.57;;;-0.60;99.90;;;;;;4990935;28;20029;-80
2021/04/16 04:27:11;;;;;;;13.13;4.85;;;-0.60;99.90;;;;;;4972690;28;20114;-80
2021/04/16 04:29:36;;;;;;;11.20;5.05;;;-0.70;99.90;;;;;;4973114;28;20027;-80
2021/04/16 04:32:02;;;;;;;10.95;5.32;;;-0.80;99.90;;;;;;4984975;28;20038;-80
2021/04/16 04:34:28;;;;;;;8.95;4.68;;;-0.80;99.90;;;;;;4991790;28;20113;-81
2021/04/16 04:36:57;;;;;;;10.13;5.50;;;-0.80;99.90;;;;;;4991259;28;20027;-80
2021/04/16 04:39:26;;;;;;;11.05;5.38;;;-0.90;99.90;;;;;;4992870;28;20061;-80
2021/04/16 04:41:52;;;;;;;15.27;4.70;;;-0.80;99.90;;;;;;4992115;28;20105;-80
2021/04/16 04:44:17;;;;;;;15.60;5.00;;;-0.80;99.90;;;;;;4990372;28;20117;-80
2021/04/16 04:46:43;;;;;;;12.02;4.75;;;-0.80;99.90;;;;;;4992457;28;20153;-81
2021/04/16 04:49:10;;;;;;;13.60;5.13;;;-0.70;99.90;;;;;;4992388;28;20106;-80
2021/04/16 04:51:37;;;;;;;15.70;4.97;;;-0.60;99.90;;;;;;4979531;28;20054;-80
2021/04/16 04:54:04;;;;;;;9.88;5.63;;;-0.60;99.90;;;;;;4972275;28;20022;-80
2021/04/16 04:56:30;;;;;;;14.75;4.38;;;-0.40;99.90;;;;;;4984313;28;20054;-80
2021/04/16 04:58:55;;;;;;;17.77;6.85;;;-0.20;99.90;;;;;;4992258;28;20067;-80
2021/04/16 05:01:21;;;;;;;13.93;5.28;;;-0.10;99.90;;;;;;4990924;28;20074;-81
2021/04/16 05:03:46;;;;;;;18.17;5.43;;;0.00;99.90;;;;;;4990233;28;20030;-80
2021/04/16 05:06:12;;;;;;;11.07;5.63;;;0.20;99.90;;;;;;4987289;28;20059;-80
2021/04/16 05:08:38;;;;;;;12.07;5.55;;;0.10;99.90;;;;;;4972766;28;20027;-80
2021/04/16 05:11:05;;;;;;;13.45;5.57;;;0.10;99.90;;;;;;4974377;28;20065;-80
2021/04/16 05:13:31;;;;;;;15.57;5.93;;;0.20;99.90;;;;;;4976724;28;20023;-80
2021/04/16 05:15:56;;;;;;;11.02;5.80;;;0.20;99.90;;;;;;4979140;28;20036;-81
2021/04/16 05:18:22;;;;;;;13.43;6.15;;;0.30;99.90;;;;;;4996209;28;20030;-80
2021/04/16 05:20:48;;;;;;;18.15;5.10;;;0.40;99.90;;;;;;4995964;28;20030;-80
2021/04/16 05:23:13;;;;;;;14.40;6.50;;;0.50;99.90;;;;;;4996019;28;20023;-80
2021/04/16 05:25:39;;;;;;;13.60;5.97;;;0.60;99.90;;;;;;4994967;28;20054;-81
2021/04/16 05:28:05;;;;;;;17.63;5.90;;;0.70;99.90;;;;;;4996315;28;20057;-80
2021/04/16 05:30:32;;;;;;;25.95;6.35;;;0.80;99.90;;;;;;4995928;28;20042;-80
2021/04/16 05:32:57;;;;;;;17.15;6.25;;;0.90;99.90;;;;;;4994539;28;20479;-80
2021/04/16 05:35:23;;;;;;;18.40;7.13;;;1.00;99.90;;;;;;4994897;28;20062;-80
2021/04/16 05:37:49;;;;;;;12.40;5.95;;;1.10;99.90;;;;;;4995839;28;20121;-80
2021/04/16 05:40:15;;;;;;;15.95;6.07;;;1.20;99.90;;;;;;4991075;28;20065;-80
2021/04/16 05:42:41;;;;;;;13.15;5.97;;;1.30;99.90;;;;;;4974831;28;20027;-81
2021/04/16 05:45:07;;;;;;;11.50;5.50;;;1.40;99.90;;;;;;4975582;28;20031;-80
2021/04/16 05:47:33;;;;;;;27.35;6.32;;;1.50;99.90;;;;;;4987970;28;20170;-80
2021/04/16 05:49:59;;;;;;;10.65;5.07;;;1.60;99.90;;;;;;4976141;28;20054;-80
2021/04/16 05:52:25;;;;;;;13.40;5.38;;;1.70;99.90;;;;;;4976040;28;20031;-80
2021/04/16 05:54:51;;;;;;;15.30;5.25;;;1.80;99.90;;;;;;4990281;28;20030;-80
2021/04/16 05:57:16;;;;;;;27.38;6.53;;;1.90;99.90;;;;;;4976120;28;20041;-81
2021/04/16 05:59:43;;;;;;;13.55;5.85;;;2.10;99.90;;;;;;4974668;28;20043;-81
2021/04/16 06:02:45;;;;;;;18.75;5.57;;;2.20;99.90;;;;;;4975956;28;20027;-80
2021/04/16 06:05:15;;;;;;;14.27;5.75;;;2.40;99.90;;;;;;4953529;28;20043;-80
2021/04/16 06:07:41;;;;;;;14.20;6.53;;;2.60;99.90;;;;;;4972025;28;20039;-81
2021/04/16 06:10:08;;;;;;;19.80;5.90;;;2.80;99.90;;;;;;4975852;28;20030;-80
2021/04/16 06:12:36;;;;;;;13.57;5.38;;;2.90;99.90;;;;;;4975604;28;20042;-80
2021/04/16 06:15:07;;;;;;;13.07;5.93;;;3.10;99.90;;;;;;4989954;28;20035;-81
2021/04/16 06:17:34;;;;;;;15.15;6.15;;;3.30;99.90;;;;;;4974352;28;20031;-80
2021/04/16 06:19:59;;;;;;;14.23;5.80;;;3.50;99.90;;;;;;4974191;28;20566;-81
2021/04/16 06:22:25;;;;;;;12.98;5.07;;;3.70;99.90;;;;;;4975120;28;20030;-80
2021/04/16 06:24:50;;;;;;;15.88;4.93;;;3.80;99.90;;;;;;4974691;28;20026;-80
2021/04/16 06:27:17;;;;;;;13.20;4.90;;;4.10;99.90;;;;;;4995075;28;20041;-81
2021/04/16 06:29:43;;;;;;;21.58;6.00;;;4.20;99.90;;;;;;4994973;28;20023;-80
2021/04/16 06:32:09;;;;;;;17.15;6.53;;;4.40;99.90;;;;;;4993557;28;20026;-81
2021/04/16 06:34:35;;;;;;;18.55;5.78;;;4.60;99.90;;;;;;4994000;28;20490;-80
2021/04/16 06:37:00;;;;;;;26.45;6.88;;;4.80;99.90;;;;;;4978882;28;20058;-80
2021/04/16 06:39:26;;;;;;;15.90;5.53;;;5.00;99.90;;;;;;4975228;28;20066;-80
2021/04/16 06:41:52;;;;;;;11.70;5.80;;;5.10;99.90;;;;;;4990814;28;20064;-81
2021/04/16 06:44:30;;;;;;;18.08;5.53;;;5.20;99.90;;;;;;4992605;28;20041;-81
2021/04/16 06:47:02;;;;;;;16.30;5.22;;;5.40;99.90;;;;;;4994277;28;20026;-81
2021/04/16 06:49:29;;;;;;;17.08;5.72;;;5.50;99.90;;;;;;4993270;28;20031;-81
2021/04/16 06:52:08;;;;;;;14.88;5.60;;;5.70;99.90;;;;;;4993269;28;20034;-81
2021/04/16 06:55:17;;;;;;;17.20;5.60;;;5.90;99.90;;;;;;4993706;28;20033;-80
2021/04/16 06:57:49;;;;;;;23.30;5.63;;;6.00;99.90;;;;;;4992075;28;20038;-80
2021/04/16 07:00:21;;;;;;;20.58;5.95;;;6.20;99.90;;;;;;4992026;28;20038;-80
2021/04/16 07:02:56;;;;;;;14.80;5.88;;;6.30;99.90;;;;;;4984139;28;20069;-81
2021/04/16 07:05:48;;;;;;;13.95;5.28;;;6.50;99.90;;;;;;4992973;28;20486;-81
2021/04/16 07:08:43;;;;;;;11.48;5.63;;;6.70;99.90;;;;;;4993898;28;20018;-80
2021/04/16 07:11:35;;;;;;;33.00;6.40;;;6.90;99.90;;;;;;4981082;28;20039;-81
2021/04/16 07:14:03;;;;;;;16.42;6.00;;;7.10;99.90;;;;;;4972875;28;20419;-81
2021/04/16 07:16:33;;;;;;;21.75;6.25;;;7.20;99.90;;;;;;4981622;28;20101;-80
2021/04/16 07:19:02;;;;;;;20.10;6.47;;;7.40;99.90;;;;;;4992521;28;20049;-81
2021/04/16 07:21:28;;;;;;;13.60;5.68;;;7.50;99.90;;;;;;4992505;28;20022;-81
2021/04/16 07:24:03;;;;;;;18.40;6.70;;;7.70;99.90;;;;;;4992956;28;20034;-81
2021/04/16 07:26:51;;;;;;;13.40;6.00;;;7.90;99.90;;;;;;4993324;28;20057;-80
2021/04/16 07:29:45;;;;;;;15.80;5.70;;;8.20;99.90;;;;;;4993816;28;20027;-80
2021/04/16 07:32:31;;;;;;;14.52;5.55;;;8.30;99.90;;;;;;4992583;28;20073;-81
2021/04/16 07:35:23;;;;;;;19.98;4.88;;;8.30;99.90;;;;;;4991995;28;20019;-80
2021/04/16 07:38:14;;;;;;;14.15;4.88;;;8.50;99.90;;;;;;4982386;28;20395;-80
2021/04/16 07:40:45;;;;;;;15.00;5.00;;;8.60;99.90;;;;;;4979042;28;20034;-80
2021/04/16 07:43:34;;;;;;;14.80;5.03;;;8.70;99.90;;;;;;4991914;28;20073;-81
2021/04/16 07:46:00;;;;;;;12.68;4.72;;;8.90;99.90;;;;;;4992985;28;20033;-79
2021/04/16 07:48:34;;;;;;;8.57;4.00;;;9.00;99.90;;;;;;4993454;28;20551;-79
2021/04/16 07:51:01;;;;;;;;;;;9.20;99.90;;;;;;4994251;28;20084;-79
2021/04/16 07:53:40;;;;;;;11.98;4.63;;;9.20;99.90;;;;;;4993489;28;19905;-79
2021/04/16 07:56:11;;;;;;;12.48;4.65;;;9.10;99.90;;;;;;4983954;28;20037;-80
2021/04/16 07:58:38;;;;;;;7.82;3.95;;;9.10;99.90;;;;;;4993602;28;20034;-80
2021/04/16 08:01:14;;;;;;;10.07;4.75;;;9.30;99.90;;;;;;4993543;28;20026;-80
2021/04/16 08:03:51;;;;;;;13.13;4.22;;;9.50;99.90;;;;;;4991614;28;20513;-80
2021/04/16 08:06:30;;;;;;;7.70;4.03;;;9.80;99.90;;;;;;4988312;28;20038;-80
2021/04/16 08:08:57;;;;;;;11.55;3.58;;;10.20;99.90;;;;;;4989609;28;20034;-81
2021/04/16 08:11:27;;;;;;;7.85;2.60;;;10.40;99.90;;;;;;4990124;28;20040;-81
2021/04/16 08:14:20;;;;;;;5.55;2.60;;;10.30;99.90;;;;;;4991105;28;21135;-81
2021/04/16 08:17:01;;;;;;;5.60;2.08;;;10.50;99.90;;;;;;4990019;28;20046;-81
2021/04/16 08:19:37;;;;;;;10.95;2.45;;;10.60;99.90;;;;;;4991441;28;20030;-80
2021/04/16 08:22:13;;;;;;;7.60;1.98;;;10.60;99.90;;;;;;4992732;28;20074;-79
2021/04/16 08:25:01;;;;;;;5.35;2.15;;;10.50;99.90;;;;;;4992038;28;20026;-80
2021/04/16 08:27:43;;;;;;;6.97;2.30;;;10.60;99.90;;;;;;4988239;28;20407;-80
2021/04/16 08:30:23;;;;;;;3.47;1.65;;;10.60;99.90;;;;;;4973257;28;20023;-80
2021/04/16 08:33:26;;;;;;;4.07;1.92;;;10.90;99.90;;;;;;4973091;28;20054;-80
2021/04/16 08:36:07;;;;;;;4.50;1.85;;;11.10;99.90;;;;;;4977404;28;20764;-82
2021/04/16 08:38:43;;;;;;;4.15;1.98;;;11.30;99.90;;;;;;4992589;28;20037;-81
2021/04/16 08:41:11;;;;;;;6.15;2.10;;;11.30;99.90;;;;;;4988290;28;20522;-81
2021/04/16 08:43:51;;;;;;;10.20;1.95;;;11.60;99.90;;;;;;4991918;28;20036;-81
2021/04/16 08:46:30;;;;;;;3.33;1.90;;;11.20;99.90;;;;;;4992343;28;20053;-80
2021/04/16 08:49:04;;;;;;;4.78;1.75;;;11.20;99.90;;;;;;4992512;28;20096;-80
2021/04/16 08:51:32;;;;;;;6.43;1.73;;;11.30;99.90;;;;;;4991680;28;20025;-80
2021/04/16 08:54:03;;;;;;;7.38;1.67;;;11.50;99.90;;;;;;4991443;28;20034;-79
2021/04/16 08:56:35;;;;;;;2.28;1.60;;;11.50;99.90;;;;;;4987518;28;20033;-79
2021/04/16 08:59:11;;;;;;;6.60;2.83;;;11.50;99.90;;;;;;4972718;28;20030;-79
2021/04/16 09:01:44;;;;;;;3.30;1.42;;;11.50;99.90;;;;;;4981903;28;20026;-80
2021/04/16 09:04:15;;;;;;;;;;;11.70;99.90;;;;;;4992163;28;20105;-80
2021/04/16 09:06:40;;;;;;;8.40;1.90;;;11.80;99.90;;;;;;4992150;28;19905;-83
2021/04/16 09:09:09;;;;;;;5.55;1.38;;;11.90;99.90;;;;;;4991004;28;20464;-81
2021/04/16 09:11:41;;;;;;;6.18;1.83;;;12.00;99.90;;;;;;4990469;28;20031;-81
2021/04/16 09:14:27;;;;;;;3.53;1.80;;;11.90;99.90;;;;;;4990916;28;20040;-80
2021/04/16 09:17:04;;;;;;;5.22;1.88;;;12.20;99.90;;;;;;4988132;28;20486;-80
2021/04/16 09:19:30;;;;;;;5.35;2.03;;;12.30;99.90;;;;;;4991856;28;20117;-79
2021/04/16 09:22:01;;;;;;;2.47;1.67;;;12.10;99.90;;;;;;4991777;28;20106;-80
2021/04/16 09:25:04;;;;;;;6.82;1.70;;;12.40;99.90;;;;;;4989631;28;20034;-79
2021/04/16 09:27:41;;;;;;;5.88;2.10;;;12.90;99.90;;;;;;4944944;29;20147;-80
2021/04/16 09:30:07;;;;;;;8.00;2.03;;;13.20;99.90;;;;;;4983143;28;20043;-81
2021/04/16 09:32:33;;;;;;;13.35;1.70;;;13.10;99.90;;;;;;4986169;28;20030;-82
2021/04/16 09:35:22;;;;;;;2.15;1.58;;;13.30;99.90;;;;;;4985787;28;20518;-82
2021/04/16 09:37:50;;;;;;;3.72;1.65;;;13.30;99.90;;;;;;4950797;28;20042;-83
2021/04/16 09:40:19;;;;;;;13.10;1.55;;;13.30;99.90;;;;;;4987521;28;21042;-81
2021/04/16 09:42:46;;;;;;;8.40;1.70;;;13.60;99.90;;;;;;4987527;28;20049;-81
2021/04/16 09:45:31;;;;;;;2.15;1.50;;;13.80;99.90;;;;;;4987022;28;20483;-82
2021/04/16 09:48:06;;;;;;;4.43;2.08;;;14.00;98.60;;;;;;4985820;28;20117;-83
2021/04/16 09:50:36;;;;;;;3.70;1.48;;;13.70;95.10;;;;;;4985057;28;20030;-83
2021/04/16 09:53:10;;;;;;;10.02;1.67;;;13.90;99.90;;;;;;4987723;28;20031;-82
2021/04/16 09:55:44;;;;;;;3.88;1.77;;;13.90;99.90;;;;;;4983124;28;20069;-82
2021/04/16 09:58:13;;;;;;;3.33;1.48;;;13.70;95.20;;;;;;4981882;28;20038;-81
2021/04/16 10:00:53;;;;;;;2.97;1.38;;;13.60;99.90;;;;;;4989471;28;20109;-83
2021/04/16 10:03:55;;;;;;;3.25;1.65;;;13.40;94.20;;;;;;4989602;28;20081;-82
2021/04/16 10:06:31;;;;;;;14.27;1.70;;;13.20;95.40;;;;;;4990096;28;20030;-83
2021/04/16 10:09:03;;;;;;;4.13;1.40;;;13.20;93.80;;;;;;4986685;28;20022;-82
2021/04/16 10:11:29;;;;;;;4.07;1.55;;;13.30;99.90;;;;;;4989124;28;20026;-81
2021/04/16 10:14:18;;;;;;;5.55;1.55;;;13.30;90.60;;;;;;4990477;28;20514;-83
2021/04/16 10:16:45;;;;;;;7.70;1.65;;;13.10;96.00;;;;;;4990872;28;20033;-82
2021/04/16 10:19:22;;;;;;;7.45;1.48;;;13.10;92.70;;;;;;4989902;28;20033;-82
2021/04/16 10:21:48;;;;;;;2.85;1.50;;;13.00;93.90;;;;;;4990421;28;20760;-82
2021/04/16 12:38:49;;;;;;;2.42;1.00;;;14.90;57.30;;;;;;4982953;28;20041;-82
2021/04/16 12:41:19;;;;;;;2.03;0.73;;;15.20;55.80;;;;;;4980787;28;20040;-82
2021/04/16 12:43:46;;;;;;;3.22;1.23;;;15.90;58.50;;;;;;4987364;28;20077;-82
2021/04/16 12:46:15;;;;;;;2.60;1.00;;;16.60;51.20;;;;;;4987965;28;20670;-82
2021/04/16 12:48:42;;;;;;;1.70;0.73;;;16.30;52.70;;;;;;4989014;28;20042;-81
2021/04/16 12:51:09;;;;;;;4.15;1.00;;;16.40;53.90;;;;;;4987292;28;20041;-82
2021/04/16 12:53:34;;;;;;;3.42;1.23;;;16.60;54.30;;;;;;4991917;28;20109;-82
2021/04/16 12:56:00;;;;;;;5.55;1.25;;;16.50;49.50;;;;;;5006178;28;20530;-81
2021/04/16 12:58:32;;;;;;;2.83;1.10;;;16.70;53.10;;;;;;4992328;28;20037;-81
2021/04/16 13:01:01;;;;;;;1.02;0.75;;;16.50;49.30;;;;;;4991401;28;20027;-82
2021/04/16 13:03:41;;;;;;;2.38;1.00;;;16.80;47.90;;;;;;4992144;28;20029;-81
2021/04/16 13:06:23;;;;;;;3.80;1.27;;;16.70;49.70;;;;;;4992024;28;20022;-81
2021/04/16 13:08:50;;;;;;;3.30;1.13;;;17.00;50.00;;;;;;5007320;28;20022;-80
2021/04/16 13:11:16;;;;;;;2.08;1.30;;;17.40;49.90;;;;;;4991703;28;20038;-81
2021/04/16 13:13:41;;;;;;;6.47;1.98;;;17.80;48.30;;;;;;4991553;28;20022;-81
2021/04/16 13:16:08;;;;;;;4.93;1.20;;;17.90;48.60;;;;;;4991850;28;20034;-81
2021/04/16 13:18:43;;;;;;;3.78;1.00;;;18.20;47.10;;;;;;4992123;28;20034;-82
2021/04/16 13:21:27;;;;;;;3.53;1.38;;;18.20;45.40;;;;;;4990311;28;20037;-82
2021/04/16 13:23:53;;;;;;;3.88;1.25;;;18.90;46.50;;;;;;4991178;28;20562;-81
2021/04/16 13:26:18;;;;;;;4.93;1.50;;;18.80;46.40;;;;;;4980749;28;20027;-82
2021/04/16 13:28:45;;;;;;;7.18;1.58;;;18.70;46.50;;;;;;4972599;28;20395;-83
2021/04/16 13:31:11;;;;;;;2.83;1.40;;;18.00;47.60;;;;;;4977075;28;20150;-81
2021/04/16 13:33:41;;;;;;;4.45;1.30;;;18.10;46.30;;;;;;5010524;28;20030;-81
2021/04/16 13:36:11;;;;;;;5.18;1.38;;;17.80;43.20;;;;;;4995563;28;20109;-81
2021/04/16 13:38:36;;;;;;;4.03;1.70;;;18.10;49.80;;;;;;4995788;28;20058;-81
2021/04/16 13:41:02;;;;;;;7.85;1.25;;;17.80;44.90;;;;;;5001630;28;20071;-81
2021/04/16 13:43:29;;;;;;;5.38;1.33;;;17.30;43.40;;;;;;4976350;28;20479;-81
2021/04/16 13:45:56;;;;;;;3.03;1.65;;;17.30;45.40;;;;;;4974187;28;20034;-81
2021/04/16 13:48:22;;;;;;;2.85;1.60;;;17.40;48.40;;;;;;4976227;28;20030;-82
2021/04/16 13:50:48;;;;;;;6.82;1.85;;;17.70;48.70;;;;;;4979137;28;20022;-81
2021/04/16 13:53:15;;;;;;;6.43;1.73;;;17.60;43.90;;;;;;4995536;28;20026;-81
2021/04/16 13:55:41;;;;;;;9.68;2.17;;;17.20;46.60;;;;;;4990257;28;20447;-81
2021/04/16 13:58:07;;;;;;;3.10;1.60;;;17.60;48.60;;;;;;4975887;28;20035;-81
2021/04/16 14:00:36;;;;;;;1.77;1.58;;;17.90;45.80;;;;;;4975860;28;20035;-81
2021/04/16 14:03:11;;;;;;;4.10;1.92;;;18.10;44.50;;;;;;5010488;28;20027;-83
2021/04/16 14:05:37;;;;;;;4.15;1.63;;;18.30;45.00;;;;;;4995750;28;20018;-82
2021/04/16 14:08:03;;;;;;;3.08;1.55;;;17.90;46.40;;;;;;4995853;28;20035;-83
2021/04/16 14:10:32;;;;;;;2.67;1.67;;;18.20;47.80;;;;;;4995542;28;20033;-83
2021/04/16 14:12:58;;;;;;;3.90;2.15;;;18.40;47.50;;;;;;4995759;28;20026;-83
2021/04/16 14:15:23;;;;;;;3.20;2.13;;;18.70;45.00;;;;;;4994418;28;20026;-83
2021/04/16 14:17:56;;;;;;;4.10;2.00;;;18.50;45.80;;;;;;4995342;28;20495;-80
2021/04/16 14:20:36;;;;;;;7.40;2.10;;;18.50;46.90;;;;;;4993901;28;20038;-81
2021/04/16 14:23:03;;;;;;;4.30;1.92;;;17.90;45.30;;;;;;4975593;28;20258;-81
2021/04/16 14:25:33;;;;;;;9.18;2.30;;;18.30;47.90;;;;;;4978881;28;20050;-81
2021/04/16 14:27:58;;;;;;;5.20;1.70;;;18.50;45.60;;;;;;4994915;28;20030;-81
2021/04/16 14:30:28;;;;;;;3.85;1.98;;;18.10;47.10;;;;;;4993654;28;20031;-80
2021/04/16 14:32:55;;;;;;;6.32;2.35;;;19.10;49.00;;;;;;4992964;28;20038;-81
2021/04/16 14:35:23;;;;;;;7.50;2.45;;;20.00;43.10;;;;;;4994375;28;20109;-81
2021/04/16 14:37:48;;;;;;;5.13;1.88;;;18.20;43.10;;;;;;4993471;28;20038;-81
2021/04/16 14:40:17;;;;;;;9.00;2.47;;;18.60;46.10;;;;;;4992837;28;20038;-81
2021/04/16 14:42:42;;;;;;;3.58;1.35;;;18.80;47.30;;;;;;4994284;28;20026;-81
2021/04/16 14:45:11;;;;;;;4.15;1.83;;;19.00;47.60;;;;;;4993946;28;20022;-81
2021/04/16 14:47:37;;;;;;;5.70;1.80;;;18.80;45.60;;;;;;4994790;28;20031;-81
2021/04/16 14:50:08;;;;;;;6.13;1.98;;;18.40;46.80;;;;;;4994504;28;20053;-81
2021/04/16 14:52:35;;;;;;;3.28;1.73;;;18.50;46.20;;;;;;4992611;28;20093;-81
2021/04/16 14:55:05;;;;;;;3.75;2.13;;;17.80;48.60;;;;;;4993205;28;20054;-80
2021/04/16 14:57:35;;;;;;;4.20;2.42;;;17.80;48.60;;;;;;4994219;28;20064;-84
2021/04/16 15:00:03;;;;;;;4.45;2.58;;;17.60;47.20;;;;;;4993065;28;20751;-80
2021/04/16 15:02:29;;;;;;;7.20;2.92;;;17.30;48.20;;;;;;4993576;28;20044;-82
2021/04/16 15:04:54;;;;;;;3.47;2.17;;;17.70;50.40;;;;;;4993645;28;20107;-81
2021/04/16 15:07:23;;;;;;;7.28;1.98;;;18.40;50.30;;;;;;4994334;28;20022;-82
2021/04/16 15:09:57;;;;;;;4.97;2.22;;;18.70;48.80;;;;;;4990210;28;20066;-79
2021/04/16 15:12:24;;;;;;;7.15;3.00;;;19.20;47.10;;;;;;4989792;28;20034;-80
2021/04/16 15:14:52;;;;;;;5.40;2.25;;;18.90;44.10;;;;;;4991023;28;20061;-80
2021/04/16 15:17:19;;;;;;;4.68;1.92;;;18.70;45.10;;;;;;4990947;28;20046;-80